sensor_id;sensor_type;location;lat;lon;timestamp;pressure;altitude;pressure_sealevel;temperature;humidity
29383;BME280;16365;51.598;7.668;2023-02-02T00:01:56;101249.56;;;12.31;48.60
29383;BME280;16365;51.598;7.668;2023-02-02T00:04:24;101252.03;;;12.32;48.11
29383;BME280;16365;51.598;7.668;2023-02-02T00:06:51;101250.91;;;12.33;47.76
29383;BME280;16365;51.598;7.668;2023-02-02T00:09:17;101252.53;;;12.34;48.08
29383;BME280;16365;51.598;7.668;2023-02-02T00:11:45;101256.94;;;12.35;47.59
29383;BME280;16365;51.598;7.668;2023-02-02T00:14:12;101246.63;;;12.36;48.14
29383;BME280;16365;51.598;7.668;2023-02-02T00:16:42;101251.03;;;12.37;47.79
29383;BME280;16365;51.598;7.668;2023-02-02T00:19:16;101259.88;;;12.39;48.76
29383;BME280;16365;51.598;7.668;2023-02-02T00:21:42;101256.28;;;12.39;47.66
29383;BME280;16365;51.598;7.668;2023-02-02T00:24:12;101254.81;;;12.41;48.23
29383;BME280;16365;51.598;7.668;2023-02-02T00:26:39;101254.50;;;12.43;48.38
29383;BME280;16365;51.598;7.668;2023-02-02T00:29:06;101248.09;;;12.42;48.66
29383;BME280;16365;51.598;7.668;2023-02-02T00:31:33;101253.34;;;12.44;48.23
29383;BME280;16365;51.598;7.668;2023-02-02T00:34:00;101243.03;;;12.44;48.46
29383;BME280;16365;51.598;7.668;2023-02-02T00:36:26;101251.03;;;12.46;48.05
29383;BME280;16365;51.598;7.668;2023-02-02T00:38:52;101249.41;;;12.45;48.26
29383;BME280;16365;51.598;7.668;2023-02-02T00:41:19;101248.25;;;12.46;48.51
29383;BME280;16365;51.598;7.668;2023-02-02T00:43:45;101252.69;;;12.47;48.64
29383;BME280;16365;51.598;7.668;2023-02-02T00:46:31;101253.81;;;12.46;48.43
29383;BME280;16365;51.598;7.668;2023-02-02T00:48:58;101253.81;;;12.46;48.17
29383;BME280;16365;51.598;7.668;2023-02-02T00:51:24;101255.78;;;12.45;48.49
29383;BME280;16365;51.598;7.668;2023-02-02T00:53:51;101248.59;;;12.44;48.33
29383;BME280;16365;51.598;7.668;2023-02-02T00:56:17;101254.97;;;12.45;48.25
29383;BME280;16365;51.598;7.668;2023-02-02T00:58:43;101262.50;;;12.44;47.82
29383;BME280;16365;51.598;7.668;2023-02-02T01:01:16;101269.22;;;12.43;48.07
29383;BME280;16365;51.598;7.668;2023-02-02T01:03:43;101264.78;;;12.42;48.12
29383;BME280;16365;51.598;7.668;2023-02-02T01:06:09;101270.03;;;12.44;48.24
29383;BME280;16365;51.598;7.668;2023-02-02T01:08:36;101266.44;;;12.43;48.07
29383;BME280;16365;51.598;7.668;2023-02-02T01:11:04;101274.44;;;12.45;48.09
29383;BME280;16365;51.598;7.668;2023-02-02T01:13:30;101272.47;;;12.45;48.17
29383;BME280;16365;51.598;7.668;2023-02-02T01:15:58;101270.19;;;12.47;48.10
29383;BME280;16365;51.598;7.668;2023-02-02T01:18:25;101270.19;;;12.47;48.01
29383;BME280;16365;51.598;7.668;2023-02-02T01:20:58;101279.84;;;12.50;48.55
29383;BME280;16365;51.598;7.668;2023-02-02T01:23:25;101272.66;;;12.49;48.81
29383;BME280;16365;51.598;7.668;2023-02-02T01:25:52;101272.31;;;12.50;48.34
29383;BME280;16365;51.598;7.668;2023-02-02T01:28:18;101283.59;;;12.54;48.30
29383;BME280;16365;51.598;7.668;2023-02-02T01:30:45;101271.34;;;12.55;48.31
29383;BME280;16365;51.598;7.668;2023-02-02T01:33:11;101274.94;;;12.55;47.99
29383;BME280;16365;51.598;7.668;2023-02-02T01:35:43;101278.53;;;12.56;48.29
29383;BME280;16365;51.598;7.668;2023-02-02T01:38:10;101281.00;;;12.57;48.62
29383;BME280;16365;51.598;7.668;2023-02-02T01:40:36;101272.97;;;12.56;48.71
29383;BME280;16365;51.598;7.668;2023-02-02T01:43:14;101291.28;;;12.57;48.53
29383;BME280;16365;51.598;7.668;2023-02-02T01:45:47;101285.25;;;12.55;48.46
29383;BME280;16365;51.598;7.668;2023-02-02T01:48:14;101283.28;;;12.55;48.54
29383;BME280;16365;51.598;7.668;2023-02-02T01:50:41;101293.59;;;12.55;48.17
29383;BME280;16365;51.598;7.668;2023-02-02T01:53:07;101299.16;;;12.55;48.80
29383;BME280;16365;51.598;7.668;2023-02-02T01:55:34;101300.31;;;12.54;48.72
29383;BME280;16365;51.598;7.668;2023-02-02T01:58:08;101302.25;;;12.53;47.88
29383;BME280;16365;51.598;7.668;2023-02-02T02:00:36;101299.78;;;12.52;48.42
29383;BME280;16365;51.598;7.668;2023-02-02T02:03:05;101300.94;;;12.51;48.00
29383;BME280;16365;51.598;7.668;2023-02-02T02:05:39;101299.31;;;12.50;48.25
29383;BME280;16365;51.598;7.668;2023-02-02T02:08:10;101299.94;;;12.47;47.88
29383;BME280;16365;51.598;7.668;2023-02-02T02:10:37;101300.28;;;12.45;48.27
29383;BME280;16365;51.598;7.668;2023-02-02T02:13:03;101299.47;;;12.45;48.80
29383;BME280;16365;51.598;7.668;2023-02-02T02:15:31;101287.88;;;12.43;48.36
29383;BME280;16365;51.598;7.668;2023-02-02T02:18:27;101297.34;;;12.42;48.60
29383;BME280;16365;51.598;7.668;2023-02-02T02:21:07;101300.13;;;12.42;48.50
29383;BME280;16365;51.598;7.668;2023-02-02T02:24:10;101300.94;;;12.42;49.03
29383;BME280;16365;51.598;7.668;2023-02-02T02:37:26;101295.56;;;12.54;49.23
29383;BME280;16365;51.598;7.668;2023-02-02T02:42:32;101290.31;;;12.61;48.81
29383;BME280;16365;51.598;7.668;2023-02-02T02:45:00;101290.47;;;12.65;48.66
29383;BME280;16365;51.598;7.668;2023-02-02T02:47:27;101290.63;;;12.69;49.19
29383;BME280;16365;51.598;7.668;2023-02-02T02:49:54;101283.59;;;12.71;49.22
29383;BME280;16365;51.598;7.668;2023-02-02T02:52:21;101290.47;;;12.74;48.81
29383;BME280;16365;51.598;7.668;2023-02-02T02:54:50;101283.41;;;12.76;48.89
29383;BME280;16365;51.598;7.668;2023-02-02T02:59:56;101289.97;;;12.80;48.71
29383;BME280;16365;51.598;7.668;2023-02-02T03:07:32;101304.69;;;12.90;48.95
29383;BME280;16365;51.598;7.668;2023-02-02T03:10:01;101299.63;;;12.92;48.90
29383;BME280;16365;51.598;7.668;2023-02-02T03:12:30;101293.72;;;12.93;48.83
29383;BME280;16365;51.598;7.668;2023-02-02T03:14:56;101289.44;;;12.96;48.21
29383;BME280;16365;51.598;7.668;2023-02-02T03:17:23;101291.59;;;12.99;48.94
29383;BME280;16365;51.598;7.668;2023-02-02T03:19:51;101298.78;;;13.00;48.65
29383;BME280;16365;51.598;7.668;2023-02-02T03:22:18;101293.22;;;13.00;48.66
29383;BME280;16365;51.598;7.668;2023-02-02T03:24:46;101286.19;;;13.02;48.57
29383;BME280;16365;51.598;7.668;2023-02-02T03:27:12;101280.63;;;13.02;48.07
29383;BME280;16365;51.598;7.668;2023-02-02T03:29:38;101284.22;;;13.03;48.21
29383;BME280;16365;51.598;7.668;2023-02-02T03:32:05;101281.09;;;13.04;48.11
29383;BME280;16365;51.598;7.668;2023-02-02T03:34:31;101289.44;;;13.04;48.91
29383;BME280;16365;51.598;7.668;2023-02-02T03:36:58;101278.31;;;13.04;48.71
29383;BME280;16365;51.598;7.668;2023-02-02T03:39:24;101285.53;;;13.05;48.53
29383;BME280;16365;51.598;7.668;2023-02-02T03:41:50;101286.00;;;13.07;48.31
29383;BME280;16365;51.598;7.668;2023-02-02T03:44:17;101286.81;;;13.08;48.43
29383;BME280;16365;51.598;7.668;2023-02-02T03:46:43;101294.03;;;13.09;48.99
29383;BME280;16365;51.598;7.668;2023-02-02T03:49:09;101286.00;;;13.07;49.20
29383;BME280;16365;51.598;7.668;2023-02-02T03:51:36;101282.06;;;13.08;48.58
29383;BME280;16365;51.598;7.668;2023-02-02T03:54:03;101283.69;;;13.09;49.08
29383;BME280;16365;51.598;7.668;2023-02-02T03:56:30;101285.66;;;13.09;49.14
29383;BME280;16365;51.598;7.668;2023-02-02T03:58:56;101287.28;;;13.10;48.90
29383;BME280;16365;51.598;7.668;2023-02-02T04:01:27;101288.97;;;13.11;49.13
29383;BME280;16365;51.598;7.668;2023-02-02T04:03:54;101288.16;;;13.10;48.97
29383;BME280;16365;51.598;7.668;2023-02-02T04:06:21;101293.72;;;13.10;48.93
29383;BME280;16365;51.598;7.668;2023-02-02T04:08:48;101299.28;;;13.10;48.60
29383;BME280;16365;51.598;7.668;2023-02-02T04:11:14;101288.16;;;13.10;48.17
29383;BME280;16365;51.598;7.668;2023-02-02T04:13:41;101302.88;;;13.11;48.85
29383;BME280;16365;51.598;7.668;2023-02-02T04:16:09;101299.28;;;13.10;49.07
29383;BME280;16365;51.598;7.668;2023-02-02T04:18:35;101295.34;;;13.11;48.72
29383;BME280;16365;51.598;7.668;2023-02-02T04:21:05;101286.16;;;13.11;48.22
29383;BME280;16365;51.598;7.668;2023-02-02T04:23:32;101295.34;;;13.11;48.07
29383;BME280;16365;51.598;7.668;2023-02-02T04:25:58;101299.59;;;13.09;49.03
29383;BME280;16365;51.598;7.668;2023-02-02T04:28:25;101304.34;;;13.08;49.02
29383;BME280;16365;51.598;7.668;2023-02-02T04:30:52;101299.13;;;13.07;48.61
29383;BME280;16365;51.598;7.668;2023-02-02T04:33:19;101311.06;;;13.07;48.96
29383;BME280;16365;51.598;7.668;2023-02-02T04:35:46;101306.97;;;13.05;48.29
29383;BME280;16365;51.598;7.668;2023-02-02T04:38:12;101305.03;;;13.05;48.83
29383;BME280;16365;51.598;7.668;2023-02-02T04:40:40;101309.75;;;13.05;48.44
29383;BME280;16365;51.598;7.668;2023-02-02T04:43:07;101315.31;;;13.05;48.79
29383;BME280;16365;51.598;7.668;2023-02-02T04:45:34;101310.91;;;13.04;48.50
29383;BME280;16365;51.598;7.668;2023-02-02T04:48:01;101313.69;;;13.04;49.16
29383;BME280;16365;51.598;7.668;2023-02-02T04:50:28;101300.09;;;13.02;49.21
29383;BME280;16365;51.598;7.668;2023-02-02T04:52:54;101309.28;;;13.03;48.72
29383;BME280;16365;51.598;7.668;2023-02-02T04:55:21;101305.16;;;13.00;48.38
29383;BME280;16365;51.598;7.668;2023-02-02T04:57:47;101307.13;;;13.00;48.97
29383;BME280;16365;51.598;7.668;2023-02-02T05:00:14;101313.84;;;12.99;48.72
29383;BME280;16365;51.598;7.668;2023-02-02T05:02:41;101312.22;;;12.98;48.59
29383;BME280;16365;51.598;7.668;2023-02-02T05:05:09;101308.94;;;12.96;48.69
29383;BME280;16365;51.598;7.668;2023-02-02T05:07:36;101315.34;;;12.96;48.71
29383;BME280;16365;51.598;7.668;2023-02-02T05:10:04;101312.56;;;12.96;48.59
29383;BME280;16365;51.598;7.668;2023-02-02T05:12:30;101300.59;;;12.96;48.82
29383;BME280;16365;51.598;7.668;2023-02-02T05:14:56;101303.38;;;12.96;49.12
29383;BME280;16365;51.598;7.668;2023-02-02T05:17:26;101304.22;;;12.96;49.75
29383;BME280;16365;51.598;7.668;2023-02-02T05:19:54;101311.41;;;12.97;48.81
29383;BME280;16365;51.598;7.668;2023-02-02T05:22:21;101293.91;;;12.97;48.54
29383;BME280;16365;51.598;7.668;2023-02-02T05:24:47;101297.81;;;12.96;48.99
29383;BME280;16365;51.598;7.668;2023-02-02T05:27:14;101300.59;;;12.96;48.72
29383;BME280;16365;51.598;7.668;2023-02-02T05:29:40;101284.22;;;12.94;49.09
29383;BME280;16365;51.598;7.668;2023-02-02T05:32:07;101293.06;;;12.96;48.53
29383;BME280;16365;51.598;7.668;2023-02-02T05:34:33;101287.50;;;12.96;49.54
29383;BME280;16365;51.598;7.668;2023-02-02T05:36:59;101285.53;;;12.97;48.51
29383;BME280;16365;51.598;7.668;2023-02-02T05:39:25;101286.34;;;12.97;49.29
29383;BME280;16365;51.598;7.668;2023-02-02T05:41:52;101275.22;;;12.97;49.33
29383;BME280;16365;51.598;7.668;2023-02-02T05:44:19;101283.22;;;12.99;48.92
29383;BME280;16365;51.598;7.668;2023-02-02T05:46:45;101286.84;;;12.99;49.09
29383;BME280;16365;51.598;7.668;2023-02-02T05:49:13;101280.97;;;13.01;49.01
29383;BME280;16365;51.598;7.668;2023-02-02T05:51:40;101288.97;;;13.02;48.91
29383;BME280;16365;51.598;7.668;2023-02-02T05:54:08;101290.59;;;13.03;48.99
29383;BME280;16365;51.598;7.668;2023-02-02T05:56:35;101294.19;;;13.04;49.02
29383;BME280;16365;51.598;7.668;2023-02-02T05:59:01;101291.09;;;13.05;49.02
29383;BME280;16365;51.598;7.668;2023-02-02T06:01:31;101282.75;;;13.05;48.77
29383;BME280;16365;51.598;7.668;2023-02-02T06:03:57;101294.03;;;13.09;49.01
29383;BME280;16365;51.598;7.668;2023-02-02T06:06:24;101301.22;;;13.10;49.51
29383;BME280;16365;51.598;7.668;2023-02-02T06:08:50;101301.72;;;13.12;49.05
29383;BME280;16365;51.598;7.668;2023-02-02T06:11:20;101295.00;;;13.13;49.28
29383;BME280;16365;51.598;7.668;2023-02-02T06:13:46;101306.63;;;13.15;48.96
29383;BME280;16365;51.598;7.668;2023-02-02T06:16:13;101308.28;;;13.16;49.02
29383;BME280;16365;51.598;7.668;2023-02-02T06:18:39;101301.53;;;13.17;49.28
29383;BME280;16365;51.598;7.668;2023-02-02T06:21:06;101301.53;;;13.17;49.58
29383;BME280;16365;51.598;7.668;2023-02-02T06:23:32;101299.22;;;13.19;49.33
29383;BME280;16365;51.598;7.668;2023-02-02T06:25:59;101300.03;;;13.20;48.73
29383;BME280;16365;51.598;7.668;2023-02-02T06:28:26;101310.06;;;13.21;49.45
29383;BME280;16365;51.598;7.668;2023-02-02T06:30:53;101303.38;;;13.22;49.46
29383;BME280;16365;51.598;7.668;2023-02-02T06:33:19;101310.56;;;13.23;48.82
29383;BME280;16365;51.598;7.668;2023-02-02T06:35:46;101308.59;;;13.23;49.50
29383;BME280;16365;51.598;7.668;2023-02-02T06:38:12;101314.97;;;13.24;49.63
29383;BME280;16365;51.598;7.668;2023-02-02T06:40:40;101318.25;;;13.26;49.59
29383;BME280;16365;51.598;7.668;2023-02-02T06:43:06;101321.88;;;13.26;49.20
29383;BME280;16365;51.598;7.668;2023-02-02T06:45:34;101326.28;;;13.27;49.41
29383;BME280;16365;51.598;7.668;2023-02-02T06:48:05;101327.09;;;13.28;49.69
29383;BME280;16365;51.598;7.668;2023-02-02T06:50:36;101332.31;;;13.29;49.66
29383;BME280;16365;51.598;7.668;2023-02-02T06:53:03;101330.84;;;13.32;48.71
29383;BME280;16365;51.598;7.668;2023-02-02T06:55:30;101337.25;;;13.32;49.21
29383;BME280;16365;51.598;7.668;2023-02-02T06:57:57;101338.06;;;13.33;49.89
29383;BME280;16365;51.598;7.668;2023-02-02T07:00:24;101333.00;;;13.35;49.59
29383;BME280;16365;51.598;7.668;2023-02-02T07:02:51;101338.22;;;13.36;49.46
29383;BME280;16365;51.598;7.668;2023-02-02T07:05:18;101333.00;;;13.35;49.64
29383;BME280;16365;51.598;7.668;2023-02-02T07:07:45;101334.97;;;13.34;49.81
29383;BME280;16365;51.598;7.668;2023-02-02T07:10:12;101336.59;;;13.35;49.77
29383;BME280;16365;51.598;7.668;2023-02-02T07:12:59;101341.00;;;13.36;49.21
29383;BME280;16365;51.598;7.668;2023-02-02T07:15:26;101341.81;;;13.37;49.96
29383;BME280;16365;51.598;7.668;2023-02-02T07:17:53;101344.25;;;13.38;49.63
29383;BME280;16365;51.598;7.668;2023-02-02T07:20:19;101347.06;;;13.38;49.25
29383;BME280;16365;51.598;7.668;2023-02-02T07:22:45;101345.06;;;13.39;49.80
29383;BME280;16365;51.598;7.668;2023-02-02T07:25:12;101345.06;;;13.39;50.07
29383;BME280;16365;51.598;7.668;2023-02-02T07:27:38;101352.31;;;13.40;49.89
29383;BME280;16365;51.598;7.668;2023-02-02T07:30:05;101348.72;;;13.40;49.69
29383;BME280;16365;51.598;7.668;2023-02-02T07:32:31;101344.78;;;13.41;49.61
29383;BME280;16365;51.598;7.668;2023-02-02T07:34:57;101353.94;;;13.41;49.97
29383;BME280;16365;51.598;7.668;2023-02-02T07:37:24;101356.72;;;13.41;49.82
29383;BME280;16365;51.598;7.668;2023-02-02T07:39:50;101348.38;;;13.41;49.84
29383;BME280;16365;51.598;7.668;2023-02-02T07:42:16;101358.34;;;13.42;49.81
29383;BME280;16365;51.598;7.668;2023-02-02T07:44:43;101351.16;;;13.41;50.12
29383;BME280;16365;51.598;7.668;2023-02-02T07:47:09;101357.53;;;13.42;49.63
29383;BME280;16365;51.598;7.668;2023-02-02T07:49:36;101356.72;;;13.41;49.11
29383;BME280;16365;51.598;7.668;2023-02-02T07:52:02;101363.09;;;13.42;49.72
29383;BME280;16365;51.598;7.668;2023-02-02T07:54:29;101361.47;;;13.41;49.55
29383;BME280;16365;51.598;7.668;2023-02-02T07:56:57;101363.09;;;13.42;49.88
29383;BME280;16365;51.598;7.668;2023-02-02T07:59:23;101361.97;;;13.43;49.68
29383;BME280;16365;51.598;7.668;2023-02-02T08:01:49;101359.97;;;13.43;49.86
29383;BME280;16365;51.598;7.668;2023-02-02T08:04:16;101352.78;;;13.42;49.26
29383;BME280;16365;51.598;7.668;2023-02-02T08:06:43;101367.53;;;13.43;49.88
29383;BME280;16365;51.598;7.668;2023-02-02T08:09:11;101369.50;;;13.42;50.13
29383;BME280;16365;51.598;7.668;2023-02-02T08:11:38;101370.31;;;13.43;50.49
29383;BME280;16365;51.598;7.668;2023-02-02T08:14:04;101376.38;;;13.45;50.02
29383;BME280;16365;51.598;7.668;2023-02-02T08:16:31;101378.00;;;13.46;50.04
29383;BME280;16365;51.598;7.668;2023-02-02T08:18:58;101364.91;;;13.46;50.37
29383;BME280;16365;51.598;7.668;2023-02-02T08:21:25;101376.50;;;13.48;49.65
29383;BME280;16365;51.598;7.668;2023-02-02T08:23:51;101382.91;;;13.49;50.26
29383;BME280;16365;51.598;7.668;2023-02-02T08:26:19;101377.03;;;13.50;49.54
29383;BME280;16365;51.598;7.668;2023-02-02T08:28:48;101378.31;;;13.53;49.92
29383;BME280;16365;51.598;7.668;2023-02-02T08:31:17;101384.38;;;13.55;49.92
29383;BME280;16365;51.598;7.668;2023-02-02T08:33:45;101393.56;;;13.55;50.03
29383;BME280;16365;51.598;7.668;2023-02-02T08:36:12;101391.25;;;13.57;49.61
29383;BME280;16365;51.598;7.668;2023-02-02T08:38:39;101397.31;;;13.59;50.28
29383;BME280;16365;51.598;7.668;2023-02-02T08:41:06;101390.59;;;13.60;50.08
29383;BME280;16365;51.598;7.668;2023-02-02T08:43:33;101399.44;;;13.62;49.65
29383;BME280;16365;51.598;7.668;2023-02-02T08:46:00;101395.53;;;13.63;49.55
29383;BME280;16365;51.598;7.668;2023-02-02T08:48:30;101397.97;;;13.65;49.97
29383;BME280;16365;51.598;7.668;2023-02-02T08:50:57;101400.41;;;13.67;49.56
29383;BME280;16365;51.598;7.668;2023-02-02T08:53:24;101408.41;;;13.68;49.79
29383;BME280;16365;51.598;7.668;2023-02-02T08:58:24;101413.69;;;13.70;49.75
29383;BME280;16365;51.598;7.668;2023-02-02T09:00:50;101415.78;;;13.73;49.65
29383;BME280;16365;51.598;7.668;2023-02-02T09:03:18;101426.94;;;13.73;49.81
29383;BME280;16365;51.598;7.668;2023-02-02T09:05:45;101427.09;;;13.76;49.64
29383;BME280;16365;51.598;7.668;2023-02-02T09:08:13;101422.34;;;13.77;49.80
29383;BME280;16365;51.598;7.668;2023-02-02T09:10:39;101436.78;;;13.79;49.72
29383;BME280;16365;51.598;7.668;2023-02-02T09:13:05;101439.56;;;13.79;49.79
29383;BME280;16365;51.598;7.668;2023-02-02T09:15:32;101445.28;;;13.82;50.18
29383;BME280;16365;51.598;7.668;2023-02-02T09:17:58;101438.56;;;13.83;50.06
29383;BME280;16365;51.598;7.668;2023-02-02T09:20:24;101440.19;;;13.84;49.90
29383;BME280;16365;51.598;7.668;2023-02-02T09:22:53;101443.81;;;13.85;49.76
29383;BME280;16365;51.598;7.668;2023-02-02T09:25:19;101450.19;;;13.85;49.70
29383;BME280;16365;51.598;7.668;2023-02-02T09:27:46;101456.59;;;13.86;49.72
29383;BME280;16365;51.598;7.668;2023-02-02T09:30:12;101459.38;;;13.86;49.78
29383;BME280;16365;51.598;7.668;2023-02-02T09:32:39;101471.03;;;13.88;49.91
29383;BME280;16365;51.598;7.668;2023-02-02T09:35:05;101459.03;;;13.87;49.83
29383;BME280;16365;51.598;7.668;2023-02-02T09:37:32;101469.06;;;13.88;50.16
29383;BME280;16365;51.598;7.668;2023-02-02T09:39:58;101468.72;;;13.90;49.79
29383;BME280;16365;51.598;7.668;2023-02-02T09:45:02;101475.59;;;13.93;49.88
29383;BME280;16365;51.598;7.668;2023-02-02T09:47:49;101476.41;;;13.93;50.05
29383;BME280;16365;51.598;7.668;2023-02-02T09:50:19;101476.91;;;13.95;50.16
29383;BME280;16365;51.598;7.668;2023-02-02T09:52:52;101481.81;;;13.98;50.35
29383;BME280;16365;51.598;7.668;2023-02-02T09:55:34;101492.63;;;14.00;50.54
29383;BME280;16365;51.598;7.668;2023-02-02T10:00:35;101494.09;;;14.06;49.99
29383;BME280;16365;51.598;7.668;2023-02-02T10:03:04;101501.28;;;14.07;50.58
29383;BME280;16365;51.598;7.668;2023-02-02T10:05:50;101510.16;;;14.09;49.79
29383;BME280;16365;51.598;7.668;2023-02-02T10:08:23;101512.94;;;14.09;50.19
29383;BME280;16365;51.598;7.668;2023-02-02T10:11:01;101514.56;;;14.10;50.50
29383;BME280;16365;51.598;7.668;2023-02-02T10:13:30;101509.81;;;14.10;50.39
29383;BME280;16365;51.598;7.668;2023-02-02T10:16:06;101519.00;;;14.11;50.01
29383;BME280;16365;51.598;7.668;2023-02-02T10:21:32;101526.22;;;14.12;50.41
29383;BME280;16365;51.598;7.668;2023-02-02T10:24:01;101533.09;;;14.14;50.07
29383;BME280;16365;51.598;7.668;2023-02-02T10:26:37;101537.88;;;14.14;50.36
29383;BME280;16365;51.598;7.668;2023-02-02T10:36:41;101542.63;;;14.13;50.45
29383;BME280;16365;51.598;7.668;2023-02-02T10:44:16;101558.84;;;14.11;49.84
29383;BME280;16365;51.598;7.668;2023-02-02T10:46:50;101556.06;;;14.11;50.24
29383;BME280;16365;51.598;7.668;2023-02-02T10:51:45;101550.81;;;14.10;50.33
29383;BME280;16365;51.598;7.668;2023-02-02T10:54:24;101554.78;;;14.09;49.68
29383;BME280;16365;51.598;7.668;2023-02-02T10:56:54;101555.59;;;14.09;49.91
29383;BME280;16365;51.598;7.668;2023-02-02T10:59:25;101557.91;;;14.07;49.97
29383;BME280;16365;51.598;7.668;2023-02-02T11:01:55;101561.00;;;14.06;50.37
29383;BME280;16365;51.598;7.668;2023-02-02T11:04:21;101557.06;;;14.07;50.00
29383;BME280;16365;51.598;7.668;2023-02-02T11:07:06;101559.84;;;14.07;50.25
29383;BME280;16365;51.598;7.668;2023-02-02T11:09:38;101562.63;;;14.07;50.00
29383;BME280;16365;51.598;7.668;2023-02-02T11:12:11;101570.19;;;14.06;50.43
29383;BME280;16365;51.598;7.668;2023-02-02T11:14:46;101560.53;;;14.04;49.77
29383;BME280;16365;51.598;7.668;2023-02-02T11:17:17;101568.06;;;14.03;49.79
29383;BME280;16365;51.598;7.668;2023-02-02T11:19:44;101558.38;;;14.01;50.28
29383;BME280;16365;51.598;7.668;2023-02-02T11:22:22;101569.06;;;13.99;49.89
29383;BME280;16365;51.598;7.668;2023-02-02T11:24:49;101564.13;;;13.96;50.53
29383;BME280;16365;51.598;7.668;2023-02-02T11:27:28;101568.06;;;13.95;50.21
29383;BME280;16365;51.598;7.668;2023-02-02T11:29:57;101563.31;;;13.95;50.36
29383;BME280;16365;51.598;7.668;2023-02-02T11:37:32;101564.47;;;13.94;50.43
29383;BME280;16365;51.598;7.668;2023-02-02T11:42:44;101547.41;;;13.96;50.47
29383;BME280;16365;51.598;7.668;2023-02-02T11:45:15;101553.50;;;13.98;50.22
29383;BME280;16365;51.598;7.668;2023-02-02T11:47:43;101558.72;;;13.99;50.98
29383;BME280;16365;51.598;7.668;2023-02-02T11:50:21;101575.63;;;14.03;50.28
29383;BME280;16365;51.598;7.668;2023-02-02T11:52:49;101555.75;;;14.04;50.54
29383;BME280;16365;51.598;7.668;2023-02-02T11:55:16;101566.56;;;14.06;50.28
29383;BME280;16365;51.598;7.668;2023-02-02T11:58:08;101562.31;;;14.08;50.59
29383;BME280;16365;51.598;7.668;2023-02-02T12:00:29;101564.78;;;14.10;50.69
29383;BME280;16365;51.598;7.668;2023-02-02T12:02:56;101568.38;;;14.10;50.80
29383;BME280;16365;51.598;7.668;2023-02-02T12:07:51;101565.28;;;14.12;50.81
29383;BME280;16365;51.598;7.668;2023-02-02T12:13:04;101580.84;;;14.13;50.59
29383;BME280;16365;51.598;7.668;2023-02-02T12:21:04;101573.63;;;14.12;50.87
29383;BME280;16365;51.598;7.668;2023-02-02T12:26:13;101583.94;;;14.11;50.11
29383;BME280;16365;51.598;7.668;2023-02-02T12:28:47;101587.91;;;14.10;50.94
29383;BME280;16365;51.598;7.668;2023-02-02T12:33:59;101583.47;;;14.09;50.83
29383;BME280;16365;51.598;7.668;2023-02-02T12:36:31;101590.22;;;14.08;50.62
29383;BME280;16365;51.598;7.668;2023-02-02T12:44:19;101582.50;;;14.05;50.75
29383;BME280;16365;51.598;7.668;2023-02-02T12:49:24;101585.28;;;14.05;50.87
29383;BME280;16365;51.598;7.668;2023-02-02T12:52:15;101578.88;;;14.05;51.06
29383;BME280;16365;51.598;7.668;2023-02-02T12:57:26;101583.81;;;14.08;50.90
29383;BME280;16365;51.598;7.668;2023-02-02T13:02:52;101580.69;;;14.09;50.77
29383;BME280;16365;51.598;7.668;2023-02-02T13:08:00;101586.44;;;14.13;50.63
29383;BME280;16365;51.598;7.668;2023-02-02T13:10:31;101580.50;;;14.14;51.06
29383;BME280;16365;51.598;7.668;2023-02-02T13:13:07;101572.97;;;14.15;50.88
29383;BME280;16365;51.598;7.668;2023-02-02T13:15:35;101584.63;;;14.17;50.92
29383;BME280;16365;51.598;7.668;2023-02-02T13:18:05;101584.63;;;14.17;50.46
29383;BME280;16365;51.598;7.668;2023-02-02T13:20:48;101592.66;;;14.19;50.87
29383;BME280;16365;51.598;7.668;2023-02-02T13:23:22;101585.09;;;14.19;50.70
29383;BME280;16365;51.598;7.668;2023-02-02T13:25:52;101586.72;;;14.20;50.78
29383;BME280;16365;51.598;7.668;2023-02-02T13:28:31;101599.50;;;14.21;50.70
29383;BME280;16365;51.598;7.668;2023-02-02T13:31:00;101595.91;;;14.21;50.87
29383;BME280;16365;51.598;7.668;2023-02-02T13:33:31;101599.84;;;14.20;50.65
29383;BME280;16365;51.598;7.668;2023-02-02T13:35:59;101597.88;;;14.20;50.76
29383;BME280;16365;51.598;7.668;2023-02-02T13:38:27;101596.25;;;14.19;50.69
29383;BME280;16365;51.598;7.668;2023-02-02T13:41:00;101597.06;;;14.20;50.58
29383;BME280;16365;51.598;7.668;2023-02-02T13:48:52;101612.66;;;14.21;50.43
29383;BME280;16365;51.598;7.668;2023-02-02T13:54:00;101599.84;;;14.20;50.94
29383;BME280;16365;51.598;7.668;2023-02-02T13:56:37;101609.03;;;14.20;50.77
29383;BME280;16365;51.598;7.668;2023-02-02T14:01:31;101596.25;;;14.19;50.62
29383;BME280;16365;51.598;7.668;2023-02-02T14:03:58;101603.47;;;14.20;50.96
29383;BME280;16365;51.598;7.668;2023-02-02T14:06:26;101605.09;;;14.21;50.33
29383;BME280;16365;51.598;7.668;2023-02-02T14:11:26;101600.38;;;14.22;51.09
29383;BME280;16365;51.598;7.668;2023-02-02T14:13:55;101608.72;;;14.22;50.75
29383;BME280;16365;51.598;7.668;2023-02-02T14:16:43;101604.78;;;14.23;50.43
29383;BME280;16365;51.598;7.668;2023-02-02T14:19:16;101616.25;;;14.21;51.00
29383;BME280;16365;51.598;7.668;2023-02-02T14:21:59;101617.09;;;14.22;50.55
29383;BME280;16365;51.598;7.668;2023-02-02T14:26:59;101624.97;;;14.20;50.79
29383;BME280;16365;51.598;7.668;2023-02-02T14:31:55;101626.13;;;14.19;50.51
29383;BME280;16365;51.598;7.668;2023-02-02T14:37:14;101625.31;;;14.18;50.76
29383;BME280;16365;51.598;7.668;2023-02-02T14:39:49;101627.56;;;14.16;50.35
29383;BME280;16365;51.598;7.668;2023-02-02T14:47:40;101637.09;;;14.15;51.01
29383;BME280;16365;51.598;7.668;2023-02-02T14:50:17;101629.41;;;14.12;50.99
29383;BME280;16365;51.598;7.668;2023-02-02T14:53:06;101635.47;;;14.14;50.98